Terminal Aerodrome Forecast
Issued by NWS Omaha/Valley, NE

Home | Current Version | Previous Version | Graphics & Text | Print | Product List | Glossary Off
Versions: 1 2 3 4 5 6 7 8 9 10 11 12 13 14 15 16 17 18 19 20 21 22 23 24 25 26 27 28 29 30 31 32 33 34 35 36

000
FTUS43 KOAX 181249 AAA
TAFOFK
TAF AMD
KOFK 181249Z 1813/1912 15006KT 2SM BR BKN006
      TEMPO 1813/1815 2SM BR BKN004
     FM181500 15009KT P6SM SCT015 BKN100
      TEMPO 1815/1816 4SM BR BKN015
     FM181900 16014KT P6SM FEW040 BKN120
     FM190000 14010KT P6SM SCT035 SCT100=

USA.gov is the U.S. government's official web portal to all federal, state and local government web resources and services.